This project is read-only.
1
Vote

1.2.0 Bug Report

description

Starting job 12/14

Path: R:\MP4's\Discs\Movies\Disc1\VIDEO_TS

Title: 1

Chapters: 1-44

[16:10:59] 1 job(s) to process
[16:10:59] starting job
[16:10:59] work: compression levels not supported by codec
[16:10:59] sync: expecting 226555 video frames
[16:10:59] job configuration:
[16:10:59] * source
[16:10:59] + R:\MP4's\Discs\Movies\Disc1\VIDEO_TS
[16:10:59] + title 1, chapter(s) 1 to 44
[16:10:59] * destination
[16:10:59] + R:\MP4's\Pending\Movies\Disc1\Disc1, [Movies].mp4
[16:10:59] + container: MPEG-4 (.mp4 and .m4v)
[16:10:59] + compatibility atom for iPod 5G
[16:10:59] + chapter markers
[16:10:59] * video track
[16:10:59] + decoder: mpeg2
[16:10:59] + bitrate 9800 kbps
[16:10:59] + frame rate: same as source (around 23.976 fps)
[16:10:59] + strict anamorphic
[16:10:59] + storage dimensions: 720 * 480 -> 710 * 282, crop 96/102/6/4, mod 0
[16:10:59] + pixel aspect ratio: 8 / 9
[16:10:59] + display dimensions: 631 * 282
[16:10:59] + filters
[16:10:59] + Detelecine (pullup) (default settings)
[16:10:59] + Decomb (default settings)
[16:10:59] + Denoise (hqdn3d) (2:1:2:3)
[16:10:59] + encoder: H.264 (x264)
[16:10:59] + options: ref=2:mixed-refs=0:bframes=2:weightb=0:subq=6:8x8dct=0:trellis=0
[16:10:59] + quality: 20.00 (RF)
[16:10:59] * audio track 1
[16:10:59] + decoder: English (AC3) (5.1 ch) (track 1, id 0x80bd)
[16:10:59] + bitrate: 448 kbps, samplerate: 48000 Hz
[16:10:59] + mixdown: Dolby Pro Logic II
[16:10:59] + encoder: AAC (faac)
[16:10:59] + bitrate: 160 kbps, samplerate: 48000 Hz
libdvdread: Encrypted DVD support unavailable.
libdvdread: Device (null) inaccessible, CSS authentication not available.
[16:11:00] yadif thread started for segment 1
[16:11:00] yadif thread started for segment 0
[16:11:00] decomb thread started for segment 0
[16:11:00] decomb thread started for segment 1
[16:11:00] encx264: min-keyint: 24, keyint: 240
[16:11:00] encx264: encoding with stored aspect 8/9
[16:11:00] encx264: Encoding at constant RF 20.000000
x264 [warning]: --psnr used with psy on: results will be invalid!
x264 [warning]: --tune psnr should be used if attempting to benchmark psnr!
x264 [info]: using SAR=8/9
[16:11:00] reader: first SCR 146 id 0xe0 DTS 14502
[16:11:00] mpeg2: "Chapter 1" (1) at frame 0 time 3003
x264 [info]: using cpu capabilities: MMX2 SSE2 SSE3 Cache64
x264 [info]: profile Main, level 2.2
[16:11:01] sync: first pts is 3003
[16:16:22] 211.244367s: Video -> Film
[16:16:25] mpeg2: "Chapter 2" (2) at frame 6382 time 19210774
[16:21:14] dvd: end of cell 3 at block 141904
[16:21:14] sync: adding 106 ms of silence to audio 0x80bd start 34393873, next 34384320
[16:21:16] mpeg2: "Chapter 3" (3) at frame 10450 time 34484615
[16:26:47] mpeg2: "Chapter 4" (4) at frame 14763 time 50673788
[16:31:27] mpeg2: "Chapter 5" (5) at frame 18015 time 62880983
[16:34:27] mpeg2: "Chapter 6" (6) at frame 20214 time 71133227
[16:46:01] mpeg2: "Chapter 7" (7) at frame 28203 time 101121746
[16:53:15] mpeg2: "Chapter 8" (8) at frame 33492 time 120956882
[17:04:04] sync: adding 83 ms of silence to audio 0x80bd start 148227654, next 148220160
[17:08:22] mpeg2: "Chapter 9" (9) at frame 43660 time 159161701
[17:12:12] mpeg2: "Chapter 10" (10) at frame 46484 time 169759288
[17:16:41] mpeg2: "Chapter 11" (11) at frame 50052 time 183152668
[17:20:57] mpeg2: "Chapter 12" (12) at frame 53513 time 196132263
[17:28:43] mpeg2: "Chapter 13" (13) at frame 59758 time 219567675
[17:39:15] mpeg2: "Chapter 14" (14) at frame 68663 time 252994389
[17:40:50] mpeg2: "Chapter 15" (15) at frame 69767 time 257138529
[17:42:10] sync: adding 81 ms of silence to audio 0x80bd start 261419149, next 261411840
[17:50:23] mpeg2: "Chapter 16" (16) at frame 78150 time 288595493
[17:52:00] mpeg2: "Chapter 17" (17) at frame 79303 time 292889783
[17:55:36] mpeg2: "Chapter 18" (18) at frame 81837 time 302319832
[18:00:21] mpeg2: "Chapter 19" (19) at frame 84987 time 314136637
[18:07:25] sync: adding 76 ms of silence to audio 0x80bd start 330609773, next 330602880
[18:14:49] mpeg2: "Chapter 20" (20) at frame 95096 time 352038129
[18:21:13] mpeg2: "Chapter 21" (21) at frame 99935 time 370194946
[18:27:55] mpeg2: "Chapter 22" (22) at frame 105631 time 391573303
[18:34:10] sync: adding 71 ms of silence to audio 0x80bd start 406908197, next 406901760
[18:41:24] mpeg2: "Chapter 23" (23) at frame 114295 time 424096332
[18:47:45] mpeg2: "Chapter 24" (24) at frame 119705 time 444361115
[18:55:41] mpeg2: "Chapter 25" (25) at frame 126262 time 468910640
[18:55:42] sync: adding 86 ms of silence to audio 0x80bd start 468913063, next 468905280
[19:04:18] mpeg2: "Chapter 26" (26) at frame 134180 time 498568829
[19:11:01] mpeg2: "Chapter 27" (27) at frame 140513 time 522280838
[19:11:22] mpeg2: "Chapter 28" (28) at frame 140945 time 523900956
[19:11:22] 5821.155100s: Film -> Video
[19:15:27] sync: adding 85 ms of silence to audio 0x80bd start 537513586, next 537505920
[19:15:30] mpeg2: "Chapter 29" (29) at frame 145480 time 537526150
[19:15:30] 5972.512778s: Video -> Film
[19:21:34] mpeg2: "Chapter 30" (30) at frame 150276 time 555438197
[19:32:28] mpeg2: "Chapter 31" (31) at frame 159357 time 589402448
[19:36:59] mpeg2: "Chapter 32" (32) at frame 162981 time 602958311
[19:49:26] mpeg2: "Chapter 33" (33) at frame 171920 time 636454415
[19:53:01] mpeg2: "Chapter 34" (34) at frame 175074 time 648274223
[19:59:46] mpeg2: "Chapter 35" (35) at frame 180743 time 669491060
[20:04:16] mpeg2: "Chapter 36" (36) at frame 184274 time 682626182
[20:10:44] mpeg2: "Chapter 37" (37) at frame 189335 time 701503040
[20:14:14] mpeg2: "Chapter 38" (38) at frame 192031 time 711584716
[20:25:58] sync: adding 102 ms of silence to audio 0x80bd start 741530482, next 741521280
[20:32:46] mpeg2: "Chapter 39" (39) at frame 205550 time 761954714
[20:37:07] mpeg2: "Chapter 40" (40) at frame 208966 time 774636383
[20:45:57] mpeg2: "Chapter 41" (41) at frame 216506 time 802732772
[20:50:38] mpeg2: "Chapter 42" (42) at frame 220183 time 816530054
[20:54:56] mpeg2: "Chapter 43" (43) at frame 223436 time 828679297
[20:59:02] sync: adding 80 ms of silence to audio 0x80bd start 841955053, next 841947840
[20:59:03] 9355.228611s: Film -> Video
[21:01:35] dvd: end of cell 63 at block 3843671

Result:Error Message (MS - XP) TTR: 3 seconds

comments

RandomEngy wrote Nov 5, 2011 at 3:39 AM

What's wrong? Crash? Failed encode?

deltaecho5 wrote Nov 14, 2011 at 2:47 PM

Sorry...missed your comment.

Outright crashes. I copied this from the log, since there are few crash/report bug windows during these episodes. 1.2+ have been buggy on my machines. Most often it seems the crashes occur when the program stops one file and starts another in the queue. Also, editing the queue often crashes the system...something as simple as just clearing completed files.

RandomEngy wrote Nov 14, 2011 at 4:05 PM

For the outright crashes with no stack trace shown, have you tried the same file in a recent HandBrake nightly? For the crashes with stack traces (System.NullReferenceException, etc), sending those in would be useful.

Also, if I sent you a Debug build of VidCoder could you run it for a while so I could find out what's causing these crashes?